createdAt,value
2018-09-05T00:02:23.245Z,101648.08
2018-09-05T00:04:51.770Z,101647.18
2018-09-05T00:07:20.346Z,101652.91
2018-09-05T00:09:48.855Z,101647.09
2018-09-05T00:12:17.368Z,101651.05
2018-09-05T00:14:45.866Z,101639.91
2018-09-05T00:17:14.355Z,101640.84
2018-09-05T00:19:42.844Z,101639.97
2018-09-05T00:22:11.320Z,101639.97
2018-09-05T00:24:39.900Z,101638.64
2018-09-05T00:27:08.521Z,101637.25
2018-09-05T00:29:36.979Z,101633.70
2018-09-05T00:32:05.852Z,101632.86
2018-09-05T00:34:34.356Z,101631.53
2018-09-05T00:37:03.532Z,101635.09
2018-09-05T00:39:32.294Z,101627.13
2018-09-05T00:42:00.717Z,101629.36
2018-09-05T00:44:29.239Z,101633.81
2018-09-05T00:46:57.753Z,101631.16
2018-09-05T00:49:26.174Z,101627.16
2018-09-05T00:51:54.748Z,101624.51
2018-09-05T00:54:23.260Z,101631.58
2018-09-05T00:56:51.791Z,101626.67
2018-09-05T00:59:20.339Z,101627.48
2018-09-05T01:01:48.862Z,101626.07
2018-09-05T01:04:17.365Z,101625.12
2018-09-05T01:06:46.018Z,101624.23
2018-09-05T01:09:14.520Z,101628.25
2018-09-05T01:11:43.152Z,101624.70
2018-09-05T01:14:11.611Z,101626.03
2018-09-05T01:16:40.072Z,101625.13
2018-09-05T01:19:08.645Z,101622.90
2018-09-05T01:21:37.121Z,101620.22
2018-09-05T01:24:06.130Z,101621.51
2018-09-05T01:26:34.901Z,101623.69
2018-09-05T01:29:03.431Z,101626.34
2018-09-05T01:31:32.623Z,101629.42
2018-09-05T01:34:01.189Z,101629.73
2018-09-05T01:36:29.671Z,101628.77
2018-09-05T01:38:58.268Z,101624.27
2018-09-05T01:41:26.816Z,101622.91
2018-09-05T01:43:55.606Z,101620.71
2018-09-05T01:46:24.082Z,101620.26
2018-09-05T01:48:52.589Z,101619.35
2018-09-05T01:51:21.092Z,101614.00
2018-09-05T01:53:49.535Z,101615.28
2018-09-05T01:56:18.426Z,101618.81
2018-09-05T01:58:47.023Z,101605.91
2018-09-05T02:01:15.470Z,101612.11
2018-09-05T02:03:44.077Z,101614.75
2018-09-05T02:06:12.573Z,101613.36
2018-09-05T02:08:41.349Z,101617.16
2018-09-05T02:11:09.898Z,101621.52
2018-09-05T02:13:38.455Z,101617.89
2018-09-05T02:16:07.021Z,101615.67
2018-09-05T02:18:35.488Z,101626.75
2018-09-05T02:21:04.267Z,101615.23
2018-09-05T02:23:32.873Z,101611.25
2018-09-05T02:26:01.459Z,101607.25
2018-09-05T02:28:30.029Z,101618.31
2018-09-05T02:30:58.686Z,101616.93
2018-09-05T02:33:27.400Z,101614.97
2018-09-05T02:35:55.890Z,101621.45
2018-09-05T02:38:24.378Z,101615.70
2018-09-05T02:40:53.161Z,101614.42
2018-09-05T02:43:26.933Z,101609.56
2018-09-05T02:45:55.580Z,101611.78
2018-09-05T02:48:24.162Z,101614.88
2018-09-05T02:50:52.825Z,101614.00
2018-09-05T02:53:21.491Z,101613.55
2018-09-05T02:55:55.235Z,101614.88
2018-09-05T02:58:23.973Z,101613.55
2018-09-05T03:00:52.487Z,101611.80
2018-09-05T03:03:20.958Z,101610.02
2018-09-05T03:05:49.441Z,101615.73
2018-09-05T03:08:18.061Z,101614.75
2018-09-05T03:10:46.708Z,101612.44
2018-09-05T03:13:15.204Z,101614.16
2018-09-05T03:15:43.748Z,101610.19
2018-09-05T03:18:12.570Z,101614.22
2018-09-05T03:20:41.169Z,101611.11
2018-09-05T03:23:10.373Z,101618.16
2018-09-05T03:25:39.457Z,101619.94
2018-09-05T03:28:08.707Z,101620.39
2018-09-05T03:30:37.453Z,101619.44
2018-09-05T03:33:06.215Z,101619.36
2018-09-05T03:35:34.715Z,101623.37
2018-09-05T03:38:03.162Z,101622.95
2018-09-05T03:40:31.729Z,101615.00
2018-09-05T03:43:00.192Z,101619.94
2018-09-05T03:45:28.745Z,101618.66
2018-09-05T03:47:57.329Z,101620.91
2018-09-05T03:50:53.502Z,101619.63
2018-09-05T03:53:21.989Z,101623.20
2018-09-05T03:55:50.497Z,101619.23
2018-09-05T03:58:19.146Z,101615.21
2018-09-05T04:00:47.696Z,101612.14
2018-09-05T04:03:16.174Z,101612.59
2018-09-05T04:05:44.635Z,101615.33
2018-09-05T04:08:13.299Z,101618.02
2018-09-05T04:17:24.353Z,101611.06
2018-09-05T04:19:53.054Z,101612.45
2018-09-05T04:22:21.540Z,101609.39
2018-09-05T04:24:50.107Z,101612.11
2018-09-05T04:27:18.638Z,101608.61
2018-09-05T04:29:47.300Z,101612.17
2018-09-05T04:32:15.756Z,101617.52
2018-09-05T04:34:44.219Z,101619.77
2018-09-05T04:37:12.834Z,101622.00
2018-09-05T04:39:41.326Z,101618.47
2018-09-05T04:42:09.950Z,101616.25
2018-09-05T04:44:38.482Z,101617.56
2018-09-05T04:47:07.212Z,101622.00
2018-09-05T04:49:35.745Z,101616.69
2018-09-05T04:52:04.214Z,101629.98
2018-09-05T04:54:32.708Z,101626.90
2018-09-05T04:57:01.760Z,101626.87
2018-09-05T04:59:30.643Z,101629.55
2018-09-05T05:01:59.184Z,101628.22
2018-09-05T05:04:27.671Z,101628.25
2018-09-05T05:06:56.118Z,101629.16
2018-09-05T05:09:24.620Z,101630.53
2018-09-05T05:11:53.197Z,101630.09
2018-09-05T05:14:21.861Z,101629.20
2018-09-05T05:16:50.336Z,101635.45
2018-09-05T05:19:18.878Z,101636.35
2018-09-05T05:21:47.345Z,101633.73
2018-09-05T05:24:15.808Z,101639.03
2018-09-05T05:26:44.306Z,101643.05
2018-09-05T05:29:12.803Z,101645.72
2018-09-05T05:31:41.695Z,101642.64
2018-09-05T05:34:10.297Z,101642.69
2018-09-05T05:36:38.758Z,101644.95
2018-09-05T05:39:10.746Z,101653.45
2018-09-05T05:41:39.276Z,101645.97
2018-09-05T05:44:07.830Z,101650.90
2018-09-05T05:46:36.526Z,101656.72
2018-09-05T05:49:05.182Z,101656.34
2018-09-05T05:51:33.732Z,101659.49
2018-09-05T05:54:02.365Z,101663.54
2018-09-05T05:56:31.103Z,101664.03
2018-09-05T05:58:59.675Z,101663.20
2018-09-05T06:01:28.249Z,101660.16
2018-09-05T06:03:56.794Z,101659.35
2018-09-05T06:06:25.435Z,101656.31
2018-09-05T06:08:53.929Z,101661.28
2018-09-05T06:11:22.435Z,101663.54
2018-09-05T06:13:51.048Z,101664.92
2018-09-05T06:16:19.582Z,101675.22
2018-09-05T06:18:48.047Z,101671.30
2018-09-05T06:21:16.867Z,101669.63
2018-09-05T06:23:45.443Z,101668.81
2018-09-05T06:26:13.947Z,101671.53
2018-09-05T06:28:42.672Z,101675.58
2018-09-05T06:31:11.417Z,101674.31
2018-09-05T06:33:39.802Z,101674.36
2018-09-05T06:36:08.470Z,101676.61
2018-09-05T06:38:37.039Z,101667.74
2018-09-05T06:41:05.825Z,101669.09
2018-09-05T06:43:34.405Z,101661.55
2018-09-05T06:46:32.618Z,101669.11
2018-09-05T06:49:01.166Z,101662.00
2018-09-05T06:51:29.748Z,101660.67
2018-09-05T06:53:58.240Z,101665.13
2018-09-05T06:56:26.808Z,101657.56
2018-09-05T06:58:55.299Z,101662.91
2018-09-05T07:01:23.781Z,101666.02
2018-09-05T07:03:52.408Z,101663.34
2018-09-05T07:06:20.921Z,101664.68
2018-09-05T07:08:49.419Z,101662.02
2018-09-05T07:11:17.904Z,101668.25
2018-09-05T07:13:46.470Z,101663.36
2018-09-05T07:16:15.058Z,101663.80
2018-09-05T07:18:43.620Z,101666.47
2018-09-05T07:21:12.289Z,101660.76
2018-09-05T07:23:40.748Z,101661.64
2018-09-05T07:26:09.339Z,101660.75
2018-09-05T07:28:37.795Z,101665.18
2018-09-05T07:31:06.434Z,101666.05
2018-09-05T07:33:34.992Z,101661.12
2018-09-05T07:36:04.022Z,101666.88
2018-09-05T07:38:32.559Z,101669.08
2018-09-05T07:41:01.019Z,101670.42
2018-09-05T07:47:09.164Z,101667.64
2018-09-05T07:49:37.679Z,101668.47
2018-09-05T07:52:06.231Z,101671.55
2018-09-05T07:54:34.895Z,101665.23
2018-09-05T07:57:03.400Z,101669.59
2018-09-05T07:59:31.872Z,101669.98
2018-09-05T08:02:00.358Z,101673.02
2018-09-05T08:04:28.871Z,101672.47
2018-09-05T08:06:57.426Z,101673.70
2018-09-05T08:09:26.010Z,101673.16
2018-09-05T08:11:54.483Z,101675.33
2018-09-05T08:14:22.964Z,101673.05
2018-09-05T08:16:51.498Z,101676.59
2018-09-05T08:19:20.224Z,101680.98
2018-09-05T08:21:48.764Z,101678.30
2018-09-05T08:24:17.658Z,101683.17
2018-09-05T08:26:46.165Z,101680.02
2018-09-05T08:29:14.750Z,101679.05
2018-09-05T08:31:43.257Z,101676.73
2018-09-05T08:34:11.729Z,101680.27
2018-09-05T08:36:40.378Z,101682.97
2018-09-05T08:39:12.304Z,101679.78
2018-09-05T08:41:40.885Z,101682.00
2018-09-05T08:44:09.440Z,101682.84
2018-09-05T08:46:37.938Z,101678.30
2018-09-05T08:49:06.769Z,101675.95
2018-09-05T08:51:35.209Z,101679.84
2018-09-05T08:54:03.731Z,101679.29
2018-09-05T08:56:32.486Z,101674.77
2018-09-05T08:59:00.912Z,101679.66
2018-09-05T09:01:29.506Z,101683.09
2018-09-05T09:03:58.081Z,101682.53
2018-09-05T09:06:26.606Z,101683.86
2018-09-05T09:08:55.489Z,101676.66
2018-09-05T09:11:23.921Z,101678.83
2018-09-05T09:13:52.496Z,101677.83
2018-09-05T09:16:21.754Z,101674.52
2018-09-05T09:18:50.749Z,101678.02
2018-09-05T09:21:19.351Z,101680.69
2018-09-05T09:23:47.868Z,101675.75
2018-09-05T09:26:16.437Z,101674.16
2018-09-05T09:28:44.892Z,101669.80
2018-09-05T09:31:13.306Z,101671.05
2018-09-05T09:33:42.164Z,101678.13
2018-09-05T09:36:11.186Z,101672.39
2018-09-05T09:38:39.733Z,101669.30
2018-09-05T09:41:08.229Z,101669.66
2018-09-05T09:43:36.712Z,101669.89
2018-09-05T09:46:05.481Z,101671.45
2018-09-05T09:48:34.106Z,101662.94
2018-09-05T09:51:02.658Z,101661.59
2018-09-05T09:53:31.229Z,101656.66
2018-09-05T09:55:59.741Z,101657.46
2018-09-05T09:58:28.189Z,101656.87
2018-09-05T10:01:01.985Z,101660.30
2018-09-05T10:03:35.849Z,101655.22
2018-09-05T10:06:09.617Z,101652.02
2018-09-05T10:09:41.181Z,101656.48
2018-09-05T10:12:15.081Z,101649.70
2018-09-05T10:14:52.849Z,101649.92
2018-09-05T10:17:26.560Z,101642.59
2018-09-05T10:19:56.768Z,101648.83
2018-09-05T10:22:25.465Z,101648.09
2018-09-05T10:24:55.018Z,101638.52
2018-09-05T10:27:24.318Z,101636.09
2018-09-05T10:29:53.154Z,101631.93
2018-09-05T10:32:21.997Z,101638.88
2018-09-05T10:34:50.417Z,101634.28
2018-09-05T10:37:18.983Z,101635.98
2018-09-05T10:39:47.525Z,101633.36
2018-09-05T10:42:16.012Z,101636.87
2018-09-05T10:44:44.523Z,101633.55
2018-09-05T10:47:12.973Z,101629.44
2018-09-05T10:49:57.140Z,101638.69
2018-09-05T10:52:25.726Z,101629.72
2018-09-05T10:54:54.250Z,101632.70
2018-09-05T10:57:22.741Z,101628.97
2018-09-05T10:59:51.170Z,101632.09
2018-09-05T11:02:19.730Z,101624.65
2018-09-05T11:04:48.564Z,101624.58
2018-09-05T11:07:17.121Z,101622.80
2018-09-05T11:09:45.714Z,101620.11
2018-09-05T11:12:14.152Z,101621.73
2018-09-05T11:14:42.657Z,101617.82
2018-09-05T11:17:11.469Z,101617.63
2018-09-05T11:19:39.981Z,101612.63
2018-09-05T11:22:08.526Z,101608.58
2018-09-05T11:24:37.104Z,101608.58
2018-09-05T11:27:05.802Z,101604.30
2018-09-05T11:29:44.609Z,101601.05
2018-09-05T11:32:13.099Z,101603.64
2018-09-05T11:34:42.278Z,101603.80
2018-09-05T11:37:10.748Z,101606.30
2018-09-05T11:39:39.370Z,101606.81
2018-09-05T11:42:08.046Z,101599.15
2018-09-05T11:44:36.714Z,101591.08
2018-09-05T11:47:05.452Z,101588.16
2018-09-05T11:49:34.008Z,101589.94
2018-09-05T11:52:02.589Z,101580.55
2018-09-05T11:54:31.083Z,101578.86
2018-09-05T11:56:59.637Z,101585.56
2018-09-05T11:59:28.122Z,101581.92
2018-09-05T12:01:56.807Z,101582.77
2018-09-05T12:04:25.294Z,101579.03
2018-09-05T12:06:54.229Z,101577.63
2018-09-05T12:09:22.775Z,101580.92
2018-09-05T12:11:51.270Z,101575.64
2018-09-05T12:14:19.810Z,101575.80
2018-09-05T12:16:48.364Z,101575.51
2018-09-05T12:19:17.117Z,101574.97
2018-09-05T12:21:45.693Z,101570.50
2018-09-05T12:24:14.161Z,101568.64
2018-09-05T12:26:42.595Z,101563.14
2018-09-05T12:29:12.637Z,101561.52
2018-09-05T12:31:42.385Z,101552.97
2018-09-05T12:34:12.713Z,101560.25
2018-09-05T12:36:41.277Z,101556.48
2018-09-05T12:39:12.355Z,101547.80
2018-09-05T12:41:41.223Z,101554.45
2018-09-05T12:44:09.984Z,101544.76
2018-09-05T12:46:38.822Z,101539.66
2018-09-05T12:49:07.378Z,101532.08
2018-09-05T12:51:36.012Z,101533.84
2018-09-05T12:54:04.890Z,101539.17
2018-09-05T12:56:33.413Z,101536.06
2018-09-05T12:59:01.876Z,101537.38
2018-09-05T13:01:30.403Z,101534.59
2018-09-05T13:03:59.025Z,101531.03
2018-09-05T13:06:27.553Z,101534.59
2018-09-05T13:08:56.411Z,101525.31
2018-09-05T13:11:24.984Z,101519.79
2018-09-05T13:13:53.499Z,101523.58
2018-09-05T13:16:21.966Z,101516.30
2018-09-05T13:18:50.483Z,101518.56
2018-09-05T13:21:19.041Z,101511.33
2018-09-05T13:23:47.575Z,101518.86
2018-09-05T13:26:16.171Z,101516.98
2018-09-05T13:28:44.724Z,101519.33
2018-09-05T13:31:13.180Z,101509.20
2018-09-05T13:33:41.662Z,101511.06
2018-09-05T13:36:10.154Z,101502.38
2018-09-05T13:38:38.680Z,101505.97
2018-09-05T13:41:07.198Z,101503.60
2018-09-05T13:43:35.781Z,101501.77
2018-09-05T13:46:04.291Z,101497.30
2018-09-05T13:48:32.773Z,101499.54
2018-09-05T13:51:01.401Z,101496.17
2018-09-05T13:53:30.172Z,101495.16
2018-09-05T13:55:59.030Z,101493.45
2018-09-05T13:58:28.020Z,101492.07
2018-09-05T14:00:56.491Z,101491.94
2018-09-05T14:03:25.405Z,101494.02
2018-09-05T14:05:53.859Z,101484.55
2018-09-05T14:08:22.345Z,101488.08
2018-09-05T14:10:50.807Z,101480.28
2018-09-05T14:13:19.313Z,101475.59
2018-09-05T14:15:53.716Z,101482.95
2018-09-05T14:18:22.267Z,101476.28
2018-09-05T14:20:52.061Z,101476.62
2018-09-05T14:23:21.119Z,101470.92
2018-09-05T14:25:59.238Z,101476.45
2018-09-05T14:28:27.957Z,101473.67
2018-09-05T14:30:56.883Z,101473.67
2018-09-05T14:33:25.475Z,101473.01
2018-09-05T14:35:54.170Z,101471.63
2018-09-05T14:38:22.685Z,101465.93
2018-09-05T14:40:51.168Z,101461.42
2018-09-05T14:43:19.736Z,101455.15
2018-09-05T14:45:48.297Z,101453.66
2018-09-05T14:48:16.763Z,101457.55
2018-09-05T14:50:45.364Z,101457.14
2018-09-05T14:53:13.856Z,101452.91
2018-09-05T14:55:59.918Z,101449.69
2018-09-05T14:58:28.699Z,101457.09
2018-09-05T15:00:57.247Z,101456.74
2018-09-05T15:03:25.811Z,101453.63
2018-09-05T15:05:54.470Z,101450.09
2018-09-05T15:08:22.960Z,101448.03
2018-09-05T15:10:51.840Z,101443.27
2018-09-05T15:13:20.382Z,101440.50
2018-09-05T15:15:48.934Z,101438.09
2018-09-05T15:18:21.976Z,101438.03
2018-09-05T15:20:50.516Z,101427.72
2018-09-05T15:23:19.417Z,101426.88
2018-09-05T15:25:48.225Z,101428.55
2018-09-05T15:28:16.657Z,101424.30
2018-09-05T15:30:45.323Z,101421.12
2018-09-05T15:33:13.816Z,101418.06
2018-09-05T15:35:42.417Z,101415.03
2018-09-05T15:38:10.998Z,101409.20
2018-09-05T15:40:39.573Z,101409.20
2018-09-05T15:43:08.062Z,101412.44
2018-09-05T15:45:36.549Z,101401.83
2018-09-05T15:48:05.637Z,101402.20
2018-09-05T15:50:34.646Z,101397.45
2018-09-05T15:53:03.219Z,101396.94
2018-09-05T15:55:39.585Z,101395.30
2018-09-05T15:58:08.148Z,101396.02
2018-09-05T16:00:36.669Z,101396.73
2018-09-05T16:03:05.251Z,101398.98
2018-09-05T16:05:33.778Z,101400.70
2018-09-05T16:08:02.287Z,101404.64
2018-09-05T16:10:30.862Z,101397.94
2018-09-05T16:12:59.460Z,101404.48
2018-09-05T16:15:28.131Z,101401.89
2018-09-05T16:17:56.807Z,101400.13
2018-09-05T16:20:27.473Z,101397.66
2018-09-05T16:22:56.125Z,101394.20
2018-09-05T16:25:24.673Z,101391.20
2018-09-05T16:27:53.210Z,101394.78
2018-09-05T16:30:21.740Z,101394.02
2018-09-05T16:32:50.291Z,101385.14
2018-09-05T16:35:18.852Z,101383.14
2018-09-05T16:37:47.432Z,101384.15
2018-09-05T16:40:15.941Z,101381.20
2018-09-05T16:42:44.413Z,101379.66
2018-09-05T16:45:13.001Z,101377.77
2018-09-05T16:47:41.514Z,101376.95
2018-09-05T16:50:10.036Z,101375.86
2018-09-05T16:52:39.400Z,101378.38
2018-09-05T16:55:07.936Z,101378.91
2018-09-05T16:57:44.185Z,101375.42
2018-09-05T17:00:12.687Z,101379.11
2018-09-05T17:02:41.345Z,101379.28
2018-09-05T17:05:09.806Z,101381.22
2018-09-05T17:07:38.454Z,101378.56
2018-09-05T17:10:06.978Z,101388.07
2018-09-05T17:12:35.422Z,101381.36
2018-09-05T17:15:04.137Z,101378.59
2018-09-05T17:17:32.751Z,101374.56
2018-09-05T17:20:01.259Z,101384.80
2018-09-05T17:22:29.762Z,101384.99
2018-09-05T17:24:58.219Z,101381.78
2018-09-05T17:27:26.932Z,101388.28
2018-09-05T17:30:16.909Z,101389.05
2018-09-05T17:32:45.481Z,101398.03
2018-09-05T17:35:14.066Z,101396.52
2018-09-05T17:37:42.647Z,101404.44
2018-09-05T17:40:11.694Z,101396.27
2018-09-05T17:42:40.221Z,101396.55
2018-09-05T17:45:08.734Z,101391.98
2018-09-05T17:47:51.261Z,101398.52
2018-09-05T17:50:33.004Z,101392.98
2018-09-05T17:53:01.485Z,101393.55
2018-09-05T17:55:30.133Z,101395.50
2018-09-05T17:57:58.832Z,101398.91
2018-09-05T18:00:27.505Z,101398.23
2018-09-05T18:02:56.022Z,101406.41
2018-09-05T18:05:24.516Z,101401.16
2018-09-05T18:07:52.995Z,101402.19
2018-09-05T18:10:21.565Z,101405.50
2018-09-05T18:12:50.166Z,101401.60
2018-09-05T18:15:18.730Z,101396.36
2018-09-05T18:17:47.342Z,101392.89
2018-09-05T18:20:15.893Z,101392.00
2018-09-05T18:22:44.467Z,101389.77
2018-09-05T18:25:13.100Z,101392.00
2018-09-05T18:27:41.675Z,101390.66
2018-09-05T18:30:10.293Z,101391.58
2018-09-05T18:32:38.957Z,101389.84
2018-09-05T18:35:07.544Z,101389.45
2018-09-05T18:37:36.617Z,101388.23
2018-09-05T18:40:05.674Z,101393.59
2018-09-05T18:42:34.395Z,101391.03
2018-09-05T18:45:03.119Z,101398.73
2018-09-05T18:47:31.851Z,101397.91
2018-09-05T18:50:00.341Z,101389.06
2018-09-05T18:52:29.261Z,101390.92
2018-09-05T18:54:57.874Z,101391.47
2018-09-05T18:57:26.460Z,101395.16
2018-09-05T18:59:54.993Z,101394.33
2018-09-05T19:02:23.845Z,101399.78
2018-09-05T19:04:52.628Z,101390.96
2018-09-05T19:07:21.092Z,101395.95
2018-09-05T19:09:49.591Z,101384.82
2018-09-05T19:12:18.149Z,101381.77
2018-09-05T19:14:46.752Z,101379.53
2018-09-05T19:17:15.383Z,101386.72
2018-09-05T19:19:44.628Z,101384.95
2018-09-05T19:22:13.240Z,101388.15
2018-09-05T19:24:41.882Z,101384.69
2018-09-05T19:27:10.455Z,101391.95
2018-09-05T19:29:39.171Z,101389.37
2018-09-05T19:32:07.797Z,101393.48
2018-09-05T19:34:36.297Z,101398.55
2018-09-05T19:37:04.803Z,101393.28
2018-09-05T19:39:33.408Z,101391.10
2018-09-05T19:42:31.424Z,101395.22
2018-09-05T19:44:59.917Z,101395.77
2018-09-05T19:47:28.526Z,101391.80
2018-09-05T19:49:57.182Z,101400.75
2018-09-05T19:52:26.215Z,101393.17
2018-09-05T19:54:54.919Z,101397.74
2018-09-05T19:57:23.704Z,101393.75
2018-09-05T19:59:52.205Z,101392.94
2018-09-05T20:02:20.737Z,101399.25
2018-09-05T20:04:49.404Z,101395.27
2018-09-05T20:07:18.040Z,101402.02
2018-09-05T20:09:46.641Z,101405.62
2018-09-05T20:12:15.233Z,101402.08
2018-09-05T20:14:43.794Z,101398.10
2018-09-05T20:17:17.150Z,101403.05
2018-09-05T20:19:45.701Z,101399.52
2018-09-05T20:22:14.913Z,101395.55
2018-09-05T20:24:43.449Z,101398.27
2018-09-05T20:27:12.044Z,101400.09
2018-09-05T20:29:40.543Z,101404.16
2018-09-05T20:32:09.061Z,101401.97
2018-09-05T20:34:37.759Z,101407.81
2018-09-05T20:37:06.248Z,101407.42
2018-09-05T20:39:35.045Z,101410.13
2018-09-05T20:42:03.622Z,101403.91
2018-09-05T20:44:40.171Z,101396.34
2018-09-05T20:47:08.689Z,101398.16
2018-09-05T20:49:37.183Z,101408.44
2018-09-05T20:52:05.994Z,101404.47
2018-09-05T20:54:34.518Z,101407.67
2018-09-05T20:57:06.479Z,101409.01
2018-09-05T20:59:38.280Z,101409.38
2018-09-05T21:02:06.808Z,101409.70
2018-09-05T21:04:35.502Z,101404.98
2018-09-05T21:07:06.224Z,101403.45
2018-09-05T21:09:34.707Z,101408.28
2018-09-05T21:12:03.150Z,101408.23
2018-09-05T21:14:31.647Z,101411.34
2018-09-05T21:17:00.277Z,101408.11
2018-09-05T21:19:28.779Z,101407.13
2018-09-05T21:21:57.258Z,101409.78
2018-09-05T21:24:25.732Z,101413.75
2018-09-05T21:26:54.415Z,101417.67
2018-09-05T21:29:23.047Z,101417.13
2018-09-05T21:31:51.647Z,101414.83
2018-09-05T21:34:20.142Z,101422.90
2018-09-05T21:36:48.653Z,101423.42
2018-09-05T21:39:17.093Z,101428.45
2018-09-05T21:41:45.758Z,101415.95
2018-09-05T21:44:14.246Z,101415.12
2018-09-05T21:46:42.736Z,101413.37
2018-09-05T21:49:11.196Z,101424.17
2018-09-05T21:51:39.645Z,101424.30
2018-09-05T21:54:08.084Z,101426.63
2018-09-05T21:56:36.629Z,101430.70
2018-09-05T21:59:05.423Z,101431.22
2018-09-05T22:01:47.498Z,101437.55
2018-09-05T22:04:15.955Z,101434.11
2018-09-05T22:06:44.482Z,101440.89
2018-09-05T22:09:12.943Z,101436.08
2018-09-05T22:11:41.479Z,101443.34
2018-09-05T22:14:10.051Z,101434.97
2018-09-05T22:16:38.509Z,101441.32
2018-09-05T22:19:07.218Z,101442.73
2018-09-05T22:21:35.827Z,101444.58
2018-09-05T22:24:04.336Z,101443.31
2018-09-05T22:26:32.768Z,101434.45
2018-09-05T22:29:01.265Z,101441.59
2018-09-05T22:31:30.076Z,101441.62
2018-09-05T22:33:58.541Z,101438.10
2018-09-05T22:36:27.005Z,101438.58
2018-09-05T22:38:55.489Z,101438.16
2018-09-05T22:41:24.051Z,101434.59
2018-09-05T22:46:05.488Z,101431.95
2018-09-05T22:50:57.060Z,101424.00
2018-09-05T22:53:41.648Z,101420.13
2018-09-05T22:56:26.447Z,101420.19
2018-09-05T23:01:11.747Z,101422.50
2018-09-05T23:04:06.267Z,101415.47
2018-09-05T23:07:18.187Z,101417.30
2018-09-05T23:09:57.827Z,101418.68
2018-09-05T23:12:37.561Z,101415.10
2018-09-05T23:15:17.308Z,101416.02
2018-09-05T23:21:35.425Z,101416.48
2018-09-05T23:24:06.317Z,101416.09
2018-09-05T23:26:34.968Z,101412.98
2018-09-05T23:29:03.467Z,101421.00
2018-09-05T23:31:32.024Z,101420.12
2018-09-05T23:34:00.553Z,101426.80
2018-09-05T23:36:29.106Z,101434.80
2018-09-05T23:38:57.563Z,101441.02
2018-09-05T23:41:26.037Z,101462.36
2018-09-05T23:43:54.848Z,101462.81
2018-09-05T23:46:23.330Z,101453.92
2018-09-05T23:48:51.768Z,101446.36
2018-09-05T23:51:39.443Z,101459.26
2018-09-05T23:54:07.924Z,101455.25
2018-09-05T23:56:36.440Z,101450.81
2018-09-05T23:59:06.726Z,101453.03
